createdAt,value
2022-10-23T00:01:52.722Z,5.30
2022-10-23T00:04:22.354Z,5.20
2022-10-23T00:06:51.439Z,5.65
2022-10-23T00:09:21.587Z,5.35
2022-10-23T00:11:52.017Z,5.00
2022-10-23T00:14:23.133Z,5.63
2022-10-23T00:16:51.993Z,5.32
2022-10-23T00:19:20.541Z,5.60
2022-10-23T00:21:48.751Z,4.90
2022-10-23T00:24:17.237Z,5.03
2022-10-23T00:26:45.771Z,5.30
2022-10-23T00:29:15.698Z,5.00
2022-10-23T00:31:43.794Z,5.40
2022-10-23T00:34:11.916Z,5.22
2022-10-23T00:36:40.804Z,5.47
2022-10-23T00:39:08.935Z,5.32
2022-10-23T00:41:37.372Z,5.35
2022-10-23T00:44:09.384Z,5.18
2022-10-23T00:46:40.688Z,5.30
2022-10-23T00:49:09.685Z,5.20
2022-10-23T00:51:41.706Z,5.15
2022-10-23T00:54:29.426Z,5.38
2022-10-23T00:57:01.615Z,5.30
2022-10-23T00:59:30.782Z,5.20
2022-10-23T01:02:01.685Z,5.45
2022-10-23T01:04:31.387Z,5.20
2022-10-23T01:07:07.212Z,5.10
2022-10-23T01:09:41.003Z,5.10
2022-10-23T01:12:14.657Z,5.10
2022-10-23T01:14:56.107Z,4.65
2022-10-23T01:17:33.494Z,5.13
2022-10-23T01:20:31.098Z,4.93
2022-10-23T01:23:14.571Z,5.43
2022-10-23T01:25:59.814Z,5.10
2022-10-23T01:28:35.081Z,5.00
2022-10-23T01:31:10.288Z,4.90
2022-10-23T01:33:42.843Z,5.10
2022-10-23T01:36:15.566Z,4.63
2022-10-23T01:38:49.088Z,5.07
2022-10-23T01:41:22.246Z,5.00
2022-10-23T01:43:57.136Z,4.93
2022-10-23T01:46:27.815Z,4.85
2022-10-23T01:48:58.727Z,4.80
2022-10-23T01:51:30.396Z,5.03
2022-10-23T01:54:01.265Z,4.88
2022-10-23T01:56:34.367Z,5.00
2022-10-23T01:59:07.142Z,4.60
2022-10-23T02:01:38.515Z,4.78
2022-10-23T02:04:16.076Z,4.63
2022-10-23T02:06:44.332Z,4.93
2022-10-23T02:09:12.463Z,5.05
2022-10-23T02:11:49.979Z,4.85
2022-10-23T02:14:25.406Z,4.82
2022-10-23T02:16:55.988Z,5.17
2022-10-23T02:19:30.615Z,4.68
2022-10-23T02:22:07.719Z,4.72
2022-10-23T02:24:43.205Z,4.75
2022-10-23T02:27:15.057Z,4.70
2022-10-23T02:29:48.113Z,4.65
2022-10-23T02:32:16.813Z,5.03
2022-10-23T02:34:45.143Z,4.72
2022-10-23T02:37:13.742Z,4.90
2022-10-23T02:39:42.887Z,4.72
2022-10-23T02:42:17.371Z,4.82
2022-10-23T02:44:57.443Z,4.80
2022-10-23T02:47:36.455Z,4.72
2022-10-23T02:50:11.883Z,4.55
2022-10-23T02:52:46.598Z,5.00
2022-10-23T02:55:28.213Z,4.57
2022-10-23T02:58:01.531Z,4.60
2022-10-23T03:00:34.099Z,4.80
2022-10-23T03:03:07.233Z,4.50
2022-10-23T03:05:39.714Z,4.47
2022-10-23T03:08:10.585Z,4.55
2022-10-23T03:10:39.031Z,4.50
2022-10-23T03:13:07.111Z,4.50
2022-10-23T03:15:36.859Z,4.72
2022-10-23T03:18:05.686Z,4.55
2022-10-23T03:20:33.872Z,4.50
2022-10-23T03:23:04.743Z,4.60
2022-10-23T03:25:33.240Z,4.30
2022-10-23T03:28:02.008Z,4.93
2022-10-23T03:30:30.322Z,4.35
2022-10-23T03:33:00.182Z,4.50
2022-10-23T03:35:28.802Z,4.57
2022-10-23T03:37:57.767Z,4.25
2022-10-23T03:40:26.347Z,4.57
2022-10-23T03:42:54.565Z,4.25
2022-10-23T03:45:22.735Z,4.40
2022-10-23T03:47:51.820Z,4.35
2022-10-23T03:50:21.792Z,4.80
2022-10-23T03:52:50.302Z,4.43
2022-10-23T03:55:19.389Z,4.60
2022-10-23T03:57:47.836Z,4.25
2022-10-23T04:00:16.571Z,4.38
2022-10-23T04:02:45.397Z,4.50
2022-10-23T04:05:14.044Z,4.32
2022-10-23T04:07:43.826Z,4.00
2022-10-23T04:10:12.530Z,3.90
2022-10-23T04:12:41.323Z,4.05
2022-10-23T04:15:10.712Z,4.35
2022-10-23T04:17:39.325Z,4.47
2022-10-23T04:20:07.805Z,4.65
2022-10-23T04:22:36.293Z,4.40
2022-10-23T04:25:06.985Z,4.18
2022-10-23T04:27:35.463Z,4.20
2022-10-23T04:30:04.226Z,4.10
2022-10-23T04:32:32.404Z,4.47
2022-10-23T04:35:00.879Z,4.18
2022-10-23T04:37:29.225Z,3.92
2022-10-23T04:39:57.819Z,4.18
2022-10-23T04:42:30.120Z,4.43
2022-10-23T04:44:58.619Z,4.35
2022-10-23T04:47:27.127Z,4.25
2022-10-23T04:49:56.390Z,4.25
2022-10-23T04:52:24.924Z,4.22
2022-10-23T04:54:53.426Z,4.00
2022-10-23T04:57:21.952Z,4.22
2022-10-23T04:59:52.249Z,4.10
2022-10-23T05:02:20.376Z,4.05
2022-10-23T05:04:48.928Z,4.13
2022-10-23T05:07:17.142Z,3.92
2022-10-23T05:09:45.935Z,4.10
2022-10-23T05:12:14.650Z,4.07
2022-10-23T05:14:42.922Z,4.00
2022-10-23T05:17:16.219Z,4.53
2022-10-23T05:19:49.264Z,4.43
2022-10-23T05:22:18.624Z,4.10
2022-10-23T05:24:50.735Z,4.00
2022-10-23T05:27:19.285Z,4.07
2022-10-23T05:29:47.554Z,3.83
2022-10-23T05:32:18.616Z,4.00
2022-10-23T05:34:50.368Z,4.03
2022-10-23T05:37:19.095Z,4.13
2022-10-23T05:39:47.792Z,4.05
2022-10-23T05:42:16.363Z,4.05
2022-10-23T05:44:45.105Z,4.10
2022-10-23T05:47:13.931Z,4.10
2022-10-23T05:49:44.216Z,4.10
2022-10-23T05:52:12.908Z,4.32
2022-10-23T05:54:41.492Z,4.00
2022-10-23T05:57:09.885Z,4.10
2022-10-23T05:59:38.018Z,4.30
2022-10-23T06:02:06.403Z,3.80
2022-10-23T06:04:35.689Z,4.05
2022-10-23T06:07:05.938Z,4.00
2022-10-23T06:09:34.477Z,3.80
2022-10-23T06:12:03.317Z,4.45
2022-10-23T06:14:31.836Z,4.82
2022-10-23T06:17:00.150Z,5.30
2022-10-23T06:19:28.791Z,4.75
2022-10-23T06:21:57.360Z,5.35
2022-10-23T06:24:27.696Z,5.40
2022-10-23T06:26:55.973Z,5.78
2022-10-23T06:29:24.693Z,5.82
2022-10-23T06:31:53.184Z,5.68
2022-10-23T06:34:21.651Z,6.03
2022-10-23T06:36:49.873Z,5.78
2022-10-23T06:39:18.435Z,5.75
2022-10-23T06:41:50.089Z,5.93
2022-10-23T06:44:18.590Z,6.05
2022-10-23T06:46:50.225Z,6.15
2022-10-23T06:49:19.257Z,6.03
2022-10-23T06:51:47.923Z,6.13
2022-10-23T06:54:16.575Z,6.28
2022-10-23T06:56:44.833Z,6.13
2022-10-23T06:59:14.709Z,6.50
2022-10-23T07:01:43.410Z,6.22
2022-10-23T07:04:13.727Z,6.30
2022-10-23T07:06:42.764Z,7.20
2022-10-23T07:09:12.953Z,6.60
2022-10-23T07:11:44.366Z,6.45
2022-10-23T07:14:12.565Z,6.80
2022-10-23T07:16:42.317Z,6.50
2022-10-23T07:19:10.891Z,6.63
2022-10-23T07:21:39.531Z,7.10
2022-10-23T07:24:08.121Z,6.85
2022-10-23T07:26:36.681Z,6.85
2022-10-23T07:29:05.433Z,7.53
2022-10-23T07:31:34.095Z,6.80
2022-10-23T07:34:04.151Z,6.88
2022-10-23T07:36:32.459Z,6.43
2022-10-23T07:39:01.072Z,6.53
2022-10-23T07:41:29.757Z,6.78
2022-10-23T07:43:58.251Z,6.40
2022-10-23T07:46:26.662Z,6.70
2022-10-23T07:48:54.745Z,7.35
2022-10-23T07:51:24.679Z,6.15
2022-10-23T07:53:53.266Z,6.15
2022-10-23T07:56:24.867Z,6.65
2022-10-23T07:58:54.392Z,6.30
2022-10-23T08:01:34.233Z,6.40
2022-10-23T08:04:02.865Z,6.25
2022-10-23T08:06:33.331Z,6.18
2022-10-23T08:09:05.373Z,6.35
2022-10-23T08:11:36.284Z,6.80
2022-10-23T08:14:06.573Z,7.32
2022-10-23T08:16:36.982Z,6.82
2022-10-23T08:19:07.073Z,6.82
2022-10-23T08:21:37.162Z,7.20
2022-10-23T08:24:06.660Z,6.90
2022-10-23T08:26:35.270Z,6.75
2022-10-23T08:29:03.815Z,6.80
2022-10-23T08:31:32.066Z,6.45
2022-10-23T08:34:00.662Z,6.35
2022-10-23T08:36:30.339Z,6.78
2022-10-23T08:39:00.672Z,7.07
2022-10-23T08:41:31.803Z,6.78
2022-10-23T08:44:09.818Z,6.20
2022-10-23T08:46:44.071Z,6.03
2022-10-23T08:49:26.044Z,6.43
2022-10-23T08:51:57.709Z,6.25
2022-10-23T08:54:35.239Z,5.80
2022-10-23T08:57:10.907Z,5.82
2022-10-23T08:59:45.748Z,5.43
2022-10-23T09:02:19.373Z,5.93
2022-10-23T09:04:50.087Z,5.78
2022-10-23T09:07:32.425Z,5.47
2022-10-23T09:10:19.669Z,6.07
2022-10-23T09:12:48.337Z,5.32
2022-10-23T09:15:24.131Z,5.75
2022-10-23T09:17:59.088Z,5.35
2022-10-23T09:20:30.151Z,5.57
2022-10-23T09:23:01.683Z,5.45
2022-10-23T09:25:35.161Z,5.47
2022-10-23T09:28:05.575Z,5.13
2022-10-23T09:30:36.980Z,5.05
2022-10-23T09:33:16.198Z,5.03
2022-10-23T09:35:56.192Z,5.00
2022-10-23T09:38:29.277Z,5.25
2022-10-23T09:41:01.631Z,5.03
2022-10-23T09:43:30.351Z,4.47
2022-10-23T09:46:00.471Z,5.38
2022-10-23T09:48:29.121Z,4.90
2022-10-23T09:50:59.529Z,4.85
2022-10-23T09:53:36.097Z,4.97
2022-10-23T09:56:11.811Z,4.93
2022-10-23T09:58:53.344Z,4.80
2022-10-23T10:01:25.700Z,5.40
2022-10-23T10:03:54.942Z,7.28
2022-10-23T10:06:25.286Z,6.82
2022-10-23T10:08:56.135Z,8.07
2022-10-23T10:11:31.940Z,9.10
2022-10-23T10:14:12.812Z,8.45
2022-10-23T10:16:48.308Z,8.63
2022-10-23T10:19:29.037Z,9.52
2022-10-23T10:22:08.894Z,9.02
2022-10-23T10:24:43.525Z,8.70
2022-10-23T10:27:25.784Z,8.05
2022-10-23T10:30:04.237Z,7.95
2022-10-23T10:32:42.034Z,7.90
2022-10-23T10:35:41.386Z,7.75
2022-10-23T10:38:39.249Z,7.85
2022-10-23T10:41:35.545Z,7.15
2022-10-23T10:44:17.394Z,6.95
2022-10-23T10:46:53.405Z,6.45
2022-10-23T10:49:30.357Z,6.90
2022-10-23T10:52:10.134Z,6.32
2022-10-23T10:54:49.846Z,6.30
2022-10-23T10:57:28.930Z,6.50
2022-10-23T11:00:03.088Z,6.50
2022-10-23T11:02:39.426Z,6.40
2022-10-23T11:07:53.981Z,6.75
2022-10-23T11:10:23.222Z,6.10
2022-10-23T11:12:52.919Z,6.10
2022-10-23T11:15:29.290Z,5.60
2022-10-23T11:18:00.774Z,5.53
2022-10-23T11:20:46.618Z,6.05
2022-10-23T11:23:36.263Z,5.45
2022-10-23T11:26:19.617Z,5.40
2022-10-23T11:29:24.783Z,5.47
2022-10-23T11:32:11.760Z,5.50
2022-10-23T11:34:59.587Z,5.50
2022-10-23T11:37:27.868Z,5.85
2022-10-23T11:40:14.356Z,5.05
2022-10-23T11:42:49.242Z,5.68
2022-10-23T11:45:34.914Z,5.47
2022-10-23T11:48:06.530Z,5.35
2022-10-23T11:50:51.445Z,5.32
2022-10-23T11:53:29.393Z,5.32
2022-10-23T11:56:04.181Z,5.45
2022-10-23T11:58:44.550Z,5.03
2022-10-23T12:01:31.391Z,5.57
2022-10-23T12:04:05.315Z,6.20
2022-10-23T12:06:40.366Z,5.22
2022-10-23T12:09:23.174Z,5.00
2022-10-23T12:12:04.201Z,5.63
2022-10-23T12:14:34.849Z,5.25
2022-10-23T12:17:04.344Z,4.80
2022-10-23T12:19:49.531Z,4.80
2022-10-23T12:22:20.163Z,4.70
2022-10-23T12:25:04.480Z,4.80
2022-10-23T12:27:41.407Z,4.45
2022-10-23T12:30:21.231Z,4.93
2022-10-23T12:33:20.638Z,4.45
2022-10-23T12:36:25.351Z,4.70
2022-10-23T12:38:56.037Z,4.32
2022-10-23T12:41:30.870Z,4.78
2022-10-23T12:44:02.580Z,5.30
2022-10-23T12:46:35.421Z,4.97
2022-10-23T12:49:14.184Z,4.95
2022-10-23T12:51:44.100Z,4.50
2022-10-23T12:54:17.574Z,4.68
2022-10-23T12:56:46.279Z,4.90
2022-10-23T12:59:18.249Z,4.95
2022-10-23T13:01:52.396Z,4.63
2022-10-23T13:04:29.340Z,4.55
2022-10-23T13:07:00.996Z,4.93
2022-10-23T13:09:31.759Z,4.60
2022-10-23T13:12:02.182Z,4.32
2022-10-23T13:14:34.128Z,4.90
2022-10-23T13:17:04.877Z,4.63
2022-10-23T13:19:34.199Z,4.70
2022-10-23T13:22:06.703Z,4.55
2022-10-23T13:24:42.055Z,4.45
2022-10-23T13:27:26.944Z,4.90
2022-10-23T13:29:55.851Z,4.53
2022-10-23T13:32:26.294Z,4.68
2022-10-23T13:35:04.034Z,4.65
2022-10-23T13:37:40.438Z,4.70
2022-10-23T13:40:23.528Z,4.13
2022-10-23T13:42:52.962Z,5.07
2022-10-23T13:45:24.659Z,4.57
2022-10-23T13:47:53.645Z,4.57
2022-10-23T13:50:22.316Z,4.60
2022-10-23T13:52:52.873Z,4.55
2022-10-23T13:55:25.215Z,4.55
2022-10-23T13:57:53.827Z,4.50
2022-10-23T14:00:22.295Z,4.50
2022-10-23T14:02:51.111Z,4.50
2022-10-23T14:05:20.810Z,4.35
2022-10-23T14:07:49.245Z,4.80
2022-10-23T14:10:21.127Z,4.30
2022-10-23T14:12:53.682Z,4.20
2022-10-23T14:15:23.103Z,4.03
2022-10-23T14:17:58.005Z,4.47
2022-10-23T14:20:28.274Z,4.30
2022-10-23T14:22:57.282Z,4.40
2022-10-23T14:25:27.504Z,4.18
2022-10-23T14:27:56.920Z,4.30
2022-10-23T14:30:28.274Z,4.32
2022-10-23T14:32:57.036Z,4.10
2022-10-23T14:35:26.061Z,4.38
2022-10-23T14:37:54.800Z,4.22
2022-10-23T14:40:23.554Z,4.18
2022-10-23T14:42:53.850Z,4.43
2022-10-23T14:45:22.612Z,4.40
2022-10-23T14:47:51.043Z,4.50
2022-10-23T14:50:19.997Z,3.90
2022-10-23T14:52:48.895Z,4.03
2022-10-23T14:55:17.350Z,4.30
2022-10-23T14:57:46.336Z,3.80
2022-10-23T15:00:17.431Z,3.88
2022-10-23T15:02:47.462Z,4.18
2022-10-23T15:05:29.692Z,4.13
2022-10-23T15:07:59.094Z,4.20
2022-10-23T15:10:27.827Z,4.05
2022-10-23T15:13:00.922Z,4.07
2022-10-23T15:15:31.409Z,3.83
2022-10-23T15:18:00.267Z,4.20
2022-10-23T15:20:29.246Z,4.25
2022-10-23T15:23:04.823Z,4.20
2022-10-23T15:25:33.294Z,4.00
2022-10-23T15:28:02.188Z,3.90
2022-10-23T15:30:32.285Z,4.10
2022-10-23T15:33:02.282Z,3.97
2022-10-23T15:35:32.181Z,4.07
2022-10-23T15:38:01.113Z,3.90
2022-10-23T15:40:32.738Z,4.07
2022-10-23T15:43:01.407Z,4.10
2022-10-23T15:45:31.571Z,4.20
2022-10-23T15:48:00.423Z,4.40
2022-10-23T15:50:29.248Z,4.25
2022-10-23T15:53:00.743Z,4.07
2022-10-23T15:55:30.303Z,4.40
2022-10-23T15:58:01.999Z,4.32
2022-10-23T16:00:36.750Z,3.70
2022-10-23T16:03:05.956Z,4.07
2022-10-23T16:05:34.824Z,3.92
2022-10-23T16:08:03.769Z,3.67
2022-10-23T16:10:32.461Z,3.97
2022-10-23T16:13:01.550Z,4.00
2022-10-23T16:15:30.300Z,4.20
2022-10-23T16:18:00.535Z,4.00
2022-10-23T16:20:30.995Z,4.03
2022-10-23T16:23:00.331Z,4.30
2022-10-23T16:25:29.357Z,3.70
2022-10-23T16:27:59.958Z,4.07
2022-10-23T16:30:28.847Z,3.95
2022-10-23T16:33:00.321Z,3.95
2022-10-23T16:35:31.147Z,4.15
2022-10-23T16:37:59.917Z,3.83
2022-10-23T16:40:28.919Z,3.90
2022-10-23T16:42:58.957Z,3.80
2022-10-23T16:45:27.519Z,4.13
2022-10-23T16:47:57.457Z,3.80
2022-10-23T16:50:27.871Z,3.80
2022-10-23T16:52:56.699Z,4.07
2022-10-23T16:55:25.154Z,3.60
2022-10-23T16:57:53.854Z,4.00
2022-10-23T17:00:23.190Z,3.78
2022-10-23T17:02:53.275Z,3.78
2022-10-23T17:05:22.345Z,3.70
2022-10-23T17:07:52.827Z,3.83
2022-10-23T17:10:21.584Z,3.60
2022-10-23T17:12:50.782Z,3.58
2022-10-23T17:15:20.954Z,3.85
2022-10-23T17:17:49.249Z,3.75
2022-10-23T17:20:18.690Z,3.70
2022-10-23T17:22:47.415Z,3.70
2022-10-23T17:25:17.768Z,3.63
2022-10-23T17:27:47.410Z,3.78
2022-10-23T17:30:17.598Z,3.63
2022-10-23T17:32:46.563Z,3.70
2022-10-23T17:35:15.502Z,3.83
2022-10-23T17:37:44.263Z,3.55
2022-10-23T17:40:13.955Z,3.80
2022-10-23T17:42:47.028Z,3.60
2022-10-23T17:45:17.135Z,3.60
2022-10-23T17:47:46.025Z,3.60
2022-10-23T17:50:15.056Z,3.97
2022-10-23T17:52:44.094Z,3.45
2022-10-23T17:55:13.092Z,3.60
2022-10-23T17:57:44.014Z,3.67
2022-10-23T18:00:13.973Z,3.63
2022-10-23T18:02:42.809Z,3.58
2022-10-23T18:05:12.811Z,3.53
2022-10-23T18:07:42.268Z,4.03
2022-10-23T18:10:12.254Z,3.92
2022-10-23T18:12:40.930Z,3.83
2022-10-23T18:15:12.155Z,3.40
2022-10-23T18:17:41.130Z,3.63
2022-10-23T18:20:11.890Z,3.70
2022-10-23T18:22:44.055Z,3.60
2022-10-23T18:25:13.349Z,3.53
2022-10-23T18:27:42.981Z,3.20
2022-10-23T18:30:14.461Z,3.53
2022-10-23T18:32:43.539Z,3.60
2022-10-23T18:35:14.994Z,3.35
2022-10-23T18:37:44.491Z,3.45
2022-10-23T18:40:14.420Z,3.40
2022-10-23T18:42:43.798Z,3.40
2022-10-23T18:45:14.435Z,3.47
2022-10-23T18:47:43.489Z,3.40
2022-10-23T18:50:12.804Z,3.72
2022-10-23T18:52:41.612Z,3.42
2022-10-23T18:55:11.198Z,3.10
2022-10-23T18:57:40.469Z,3.58
2022-10-23T19:00:10.952Z,3.28
2022-10-23T19:02:41.876Z,3.28
2022-10-23T19:05:11.307Z,3.40
2022-10-23T19:07:45.446Z,3.22
2022-10-23T19:10:17.952Z,3.60
2022-10-23T19:12:46.970Z,3.35
2022-10-23T19:15:16.039Z,3.38
2022-10-23T19:17:46.300Z,3.50
2022-10-23T19:20:20.518Z,3.30
2022-10-23T19:22:51.963Z,3.33
2022-10-23T19:25:25.962Z,3.40
2022-10-23T19:27:56.625Z,3.35
2022-10-23T19:30:26.885Z,3.20
2022-10-23T19:32:57.956Z,3.67
2022-10-23T19:35:27.376Z,3.55
2022-10-23T19:37:56.274Z,3.60
2022-10-23T19:40:26.350Z,3.45
2022-10-23T19:42:55.327Z,3.58
2022-10-23T19:45:23.731Z,3.30
2022-10-23T19:47:52.336Z,3.42
2022-10-23T19:50:22.713Z,3.70
2022-10-23T19:52:51.457Z,3.47
2022-10-23T19:55:20.643Z,4.00
2022-10-23T19:57:49.455Z,3.78
2022-10-23T20:00:19.991Z,3.53
2022-10-23T20:02:51.350Z,3.17
2022-10-23T20:05:24.216Z,3.50
2022-10-23T20:07:53.259Z,3.38
2022-10-23T20:10:22.089Z,3.70
2022-10-23T20:12:56.825Z,3.22
2022-10-23T20:15:31.279Z,3.28
2022-10-23T20:18:00.376Z,3.38
2022-10-23T20:20:30.584Z,3.38
2022-10-23T20:22:59.270Z,3.42
2022-10-23T20:25:28.627Z,3.25
2022-10-23T20:27:57.357Z,3.42
2022-10-23T20:30:26.651Z,3.20
2022-10-23T20:32:55.480Z,3.38
2022-10-23T20:35:25.090Z,3.38
2022-10-23T20:37:54.895Z,3.33
2022-10-23T20:40:23.264Z,3.47
2022-10-23T20:42:51.752Z,3.50
2022-10-23T20:45:20.442Z,3.00
2022-10-23T20:47:48.919Z,3.40
2022-10-23T20:50:19.280Z,3.53
2022-10-23T20:52:47.780Z,3.22
2022-10-23T20:55:17.739Z,3.42
2022-10-23T20:57:46.510Z,3.40
2022-10-23T21:00:15.776Z,3.55
2022-10-23T21:02:47.143Z,3.20
2022-10-23T21:05:18.247Z,3.15
2022-10-23T21:07:46.874Z,3.38
2022-10-23T21:10:15.381Z,3.17
2022-10-23T21:12:45.184Z,3.20
2022-10-23T21:15:13.895Z,3.20
2022-10-23T21:17:42.167Z,3.38
2022-10-23T21:20:11.623Z,3.30
2022-10-23T21:22:40.018Z,3.22
2022-10-23T21:25:09.896Z,3.33
2022-10-23T21:27:38.295Z,3.13
2022-10-23T21:30:10.467Z,2.92
2022-10-23T21:32:41.954Z,3.38
2022-10-23T21:35:11.717Z,2.95
2022-10-23T21:37:39.873Z,3.42
2022-10-23T21:40:09.626Z,3.35
2022-10-23T21:42:38.015Z,3.28
2022-10-23T21:45:10.231Z,3.30
2022-10-23T21:47:38.869Z,3.30
2022-10-23T21:50:07.943Z,2.92
2022-10-23T21:52:36.070Z,3.15
2022-10-23T21:55:07.754Z,3.15
2022-10-23T21:57:36.306Z,3.20
2022-10-23T22:00:08.276Z,3.50
2022-10-23T22:02:36.984Z,3.88
2022-10-23T22:05:05.793Z,3.03
2022-10-23T22:07:34.312Z,3.03
2022-10-23T22:10:03.131Z,3.45
2022-10-23T22:12:31.487Z,2.90
2022-10-23T22:14:59.981Z,3.00
2022-10-23T22:17:29.989Z,3.10
2022-10-23T22:19:58.269Z,3.10
2022-10-23T22:22:26.489Z,3.22
2022-10-23T22:24:55.009Z,3.10
2022-10-23T22:27:23.173Z,3.50
2022-10-23T22:29:51.654Z,3.20
2022-10-23T22:34:54.693Z,2.80
2022-10-23T22:37:23.511Z,3.00
2022-10-23T22:39:52.913Z,3.00
2022-10-23T22:42:21.447Z,3.20
2022-10-23T22:44:49.533Z,3.10
2022-10-23T22:47:17.710Z,3.25
2022-10-23T22:49:46.168Z,3.38
2022-10-23T22:52:16.087Z,2.97
2022-10-23T22:54:44.568Z,3.03
2022-10-23T22:57:12.778Z,3.15
2022-10-23T22:59:41.402Z,3.15
2022-10-23T23:02:10.156Z,3.03
2022-10-23T23:04:39.215Z,2.95
2022-10-23T23:07:08.680Z,3.20
2022-10-23T23:09:39.926Z,2.90
2022-10-23T23:12:10.225Z,2.90
2022-10-23T23:14:38.922Z,3.25
2022-10-23T23:17:08.606Z,3.00
2022-10-23T23:19:37.756Z,3.00
2022-10-23T23:22:06.468Z,3.10
2022-10-23T23:24:35.215Z,3.10
2022-10-23T23:27:04.782Z,3.03
2022-10-23T23:29:33.025Z,3.10
2022-10-23T23:32:01.923Z,3.30
2022-10-23T23:34:30.063Z,3.05
2022-10-23T23:36:58.211Z,2.88
2022-10-23T23:39:28.530Z,2.88
2022-10-23T23:41:57.317Z,2.70
2022-10-23T23:44:27.211Z,3.17
2022-10-23T23:46:55.888Z,3.10
2022-10-23T23:49:24.650Z,2.80
2022-10-23T23:51:53.323Z,2.90
2022-10-23T23:54:21.858Z,2.90
2022-10-23T23:56:50.411Z,3.10
2022-10-23T23:59:18.988Z,3.00
